Van, Turkey
Current Conditions -  °F | °C
As of 11:50 AM on Monday 24 Nov 2014 (Local Time) from LTCI Reporting Station
Broken Clouds Broken Clouds  
Wind Chill: 37°   Ceiling: 7000
Heat Index: 41°   Visibility: 6mi
Dew Point: 21°   Wind: 6mph
Humidity: 45%   Direction: 250°WSW
Pressure: 30"   Gusts: NA
Location:  38.49°N, 43.4°E
Report Text: LTCI 240850Z 25005KT 9999 SCT030 BKN070 05/M06 Q1016 NOSIG
Loading
Personal Weather Stations






























Interactive Weather Map New forecast layout! Learn more

10-Day Weather Forecast

Advertisements
Track Severe Weather on mobile